createdAt,value
2022-11-29T00:01:12.718Z,37.28
2022-11-29T00:04:15.409Z,41.10
2022-11-29T00:07:17.717Z,40.85
2022-11-29T00:10:20.366Z,41.25
2022-11-29T00:13:22.634Z,40.42
2022-11-29T00:16:25.243Z,46.60
2022-11-29T00:19:28.098Z,40.10
2022-11-29T00:22:30.593Z,38.83
2022-11-29T00:25:32.856Z,44.15
2022-11-29T00:28:36.629Z,40.70
2022-11-29T00:31:39.855Z,41.70
2022-11-29T00:34:42.711Z,35.53
2022-11-29T00:37:45.225Z,40.65
2022-11-29T00:40:52.016Z,38.85
2022-11-29T00:43:54.679Z,42.22
2022-11-29T00:46:57.210Z,41.70
2022-11-29T00:49:59.475Z,45.87
2022-11-29T00:53:01.980Z,41.13
2022-11-29T00:56:05.523Z,43.25
2022-11-29T00:59:08.024Z,38.65
2022-11-29T01:02:10.288Z,39.42
2022-11-29T01:05:12.898Z,36.83
2022-11-29T01:08:15.596Z,37.33
2022-11-29T01:11:24.227Z,40.00
2022-11-29T01:14:26.529Z,37.65
2022-11-29T01:17:29.053Z,34.95
2022-11-29T01:20:31.539Z,34.20
2022-11-29T01:23:35.539Z,37.53
2022-11-29T01:26:38.094Z,36.10
2022-11-29T01:29:40.723Z,35.33
2022-11-29T01:32:43.005Z,35.85
2022-11-29T01:35:49.865Z,37.40
2022-11-29T01:38:52.509Z,32.92
2022-11-29T01:41:55.075Z,36.00
2022-11-29T01:45:22.377Z,32.78
2022-11-29T01:48:30.943Z,26.02
2022-11-29T01:51:35.924Z,28.00
2022-11-29T01:54:43.776Z,28.98
2022-11-29T01:57:46.825Z,30.10
2022-11-29T02:00:49.541Z,26.85
2022-11-29T02:03:53.678Z,35.47
2022-11-29T02:06:56.200Z,30.57
2022-11-29T02:09:58.758Z,29.48
2022-11-29T02:13:14.853Z,30.83
2022-11-29T02:16:55.029Z,32.95
2022-11-29T02:20:32.960Z,29.77
2022-11-29T02:23:35.153Z,29.60
2022-11-29T02:26:49.858Z,32.15
2022-11-29T02:30:33.792Z,31.77
2022-11-29T02:33:39.196Z,28.15
2022-11-29T02:37:12.658Z,28.50
2022-11-29T02:40:24.309Z,26.33
2022-11-29T02:44:14.334Z,30.92
2022-11-29T02:48:08.832Z,27.77
2022-11-29T02:51:20.105Z,26.73
2022-11-29T02:54:29.839Z,28.60
2022-11-29T02:57:38.097Z,28.50
2022-11-29T03:00:51.587Z,29.60
2022-11-29T03:04:23.701Z,29.02
2022-11-29T03:07:46.733Z,28.90
2022-11-29T03:10:54.729Z,28.85
2022-11-29T03:14:14.738Z,21.93
2022-11-29T03:17:22.319Z,27.65
2022-11-29T03:21:02.662Z,28.05
2022-11-29T03:24:15.800Z,29.95
2022-11-29T03:27:28.958Z,25.42
2022-11-29T03:30:35.131Z,30.43
2022-11-29T03:33:51.472Z,29.85
2022-11-29T03:37:01.106Z,33.17
2022-11-29T03:40:08.354Z,33.75
2022-11-29T03:43:18.155Z,31.17
2022-11-29T03:46:26.892Z,31.30
2022-11-29T03:49:47.853Z,28.65
2022-11-29T03:53:05.178Z,34.08
2022-11-29T03:56:35.892Z,29.80
2022-11-29T04:00:08.116Z,35.53
2022-11-29T04:03:32.277Z,25.93
2022-11-29T04:06:52.229Z,30.52
2022-11-29T04:10:28.432Z,34.63
2022-11-29T04:13:52.183Z,40.00
2022-11-29T04:16:57.182Z,36.65
2022-11-29T04:20:17.742Z,34.50
2022-11-29T04:23:32.633Z,34.78
2022-11-29T04:26:40.788Z,29.30
2022-11-29T04:30:14.155Z,36.10
2022-11-29T04:33:35.265Z,33.03
2022-11-29T04:36:59.186Z,34.63
2022-11-29T04:40:01.610Z,35.40
2022-11-29T04:43:34.654Z,38.95
2022-11-29T04:46:58.815Z,39.22
2022-11-29T04:50:25.675Z,43.87
2022-11-29T04:53:48.053Z,38.80
2022-11-29T04:56:51.539Z,33.45
2022-11-29T05:00:10.018Z,34.10
2022-11-29T05:03:23.483Z,38.60
2022-11-29T05:07:06.450Z,26.77
2022-11-29T05:10:36.929Z,29.90
2022-11-29T05:13:48.366Z,30.62
2022-11-29T05:17:08.831Z,29.50
2022-11-29T05:20:39.379Z,30.12
2022-11-29T05:24:19.322Z,34.58
2022-11-29T05:28:02.505Z,31.03
2022-11-29T05:31:36.412Z,29.15
2022-11-29T05:35:06.680Z,26.73
2022-11-29T05:38:31.825Z,27.80
2022-11-29T05:41:52.354Z,28.80
2022-11-29T05:45:16.988Z,29.63
2022-11-29T05:48:32.609Z,28.67
2022-11-29T05:51:45.975Z,29.35
2022-11-29T05:55:09.955Z,34.47
2022-11-29T05:58:40.846Z,32.03
2022-11-29T06:01:55.933Z,33.73
2022-11-29T06:05:19.933Z,28.83
2022-11-29T06:08:44.890Z,29.05
2022-11-29T06:12:02.449Z,32.88
2022-11-29T06:15:38.061Z,31.15
2022-11-29T06:18:59.269Z,29.57
2022-11-29T06:22:08.131Z,32.35
2022-11-29T06:25:48.449Z,36.03
2022-11-29T06:29:06.616Z,33.65
2022-11-29T06:32:26.192Z,28.60
2022-11-29T06:35:50.264Z,35.03
2022-11-29T06:38:53.000Z,34.85
2022-11-29T06:41:55.320Z,29.63
2022-11-29T06:44:57.957Z,27.62
2022-11-29T06:48:04.961Z,34.88
2022-11-29T06:51:19.711Z,34.37
2022-11-29T06:54:47.504Z,34.55
2022-11-29T06:57:58.222Z,39.42
2022-11-29T07:01:07.186Z,40.42
2022-11-29T07:04:18.619Z,38.92
2022-11-29T07:07:22.769Z,40.20
2022-11-29T07:10:26.882Z,36.42
2022-11-29T07:13:29.457Z,37.25
2022-11-29T07:17:04.035Z,36.80
2022-11-29T07:20:27.061Z,35.70
2022-11-29T07:23:53.092Z,36.20
2022-11-29T07:27:02.500Z,38.67
2022-11-29T07:30:05.274Z,38.20
2022-11-29T07:33:28.815Z,38.80
2022-11-29T07:36:49.462Z,33.45
2022-11-29T07:40:03.090Z,40.33
2022-11-29T07:43:18.402Z,35.42
2022-11-29T07:46:20.702Z,40.05
2022-11-29T07:49:23.283Z,34.72
2022-11-29T07:52:25.554Z,34.35
2022-11-29T07:55:29.749Z,36.27
2022-11-29T07:58:32.335Z,37.20
2022-11-29T08:01:34.943Z,38.42
2022-11-29T08:04:46.879Z,32.00
2022-11-29T08:07:49.565Z,33.20
2022-11-29T08:10:52.189Z,34.07
2022-11-29T08:13:58.404Z,36.47
2022-11-29T08:17:00.976Z,37.20
2022-11-29T08:20:04.489Z,38.42
2022-11-29T08:23:07.722Z,43.55
2022-11-29T08:26:10.038Z,29.93
2022-11-29T08:29:12.980Z,30.15
2022-11-29T08:32:15.372Z,37.28
2022-11-29T08:35:19.732Z,33.30
2022-11-29T08:38:22.557Z,44.65
2022-11-29T08:41:25.150Z,41.20
2022-11-29T08:44:27.632Z,36.60
2022-11-29T08:47:35.797Z,44.70
2022-11-29T08:50:38.161Z,40.70
2022-11-29T08:53:44.603Z,44.20
2022-11-29T08:57:23.510Z,40.90
2022-11-29T09:00:12.626Z,46.60
2022-11-29T09:03:33.637Z,46.80
2022-11-29T09:06:43.114Z,43.85
2022-11-29T09:09:45.421Z,41.55
2022-11-29T09:12:49.663Z,44.10
2022-11-29T09:15:51.977Z,36.47
2022-11-29T09:18:56.043Z,40.55
2022-11-29T09:21:58.280Z,42.88
2022-11-29T09:25:00.851Z,42.38
2022-11-29T09:28:03.486Z,46.57
2022-11-29T09:31:11.261Z,43.15
2022-11-29T09:34:14.878Z,46.05
2022-11-29T09:37:17.443Z,44.83
2022-11-29T09:40:22.844Z,43.05
2022-11-29T09:44:00.720Z,38.83
2022-11-29T09:47:39.744Z,39.45
2022-11-29T09:50:54.116Z,41.30
2022-11-29T09:54:05.439Z,44.08
2022-11-29T09:57:10.785Z,40.75
2022-11-29T10:00:20.057Z,43.87
2022-11-29T10:03:36.384Z,40.70
2022-11-29T10:07:00.391Z,44.15
2022-11-29T10:10:26.121Z,49.35
2022-11-29T10:13:33.439Z,43.70
2022-11-29T10:16:58.751Z,48.03
2022-11-29T10:20:21.672Z,43.13
2022-11-29T10:23:29.326Z,44.72
2022-11-29T10:26:35.122Z,47.65
2022-11-29T10:29:38.640Z,46.92
2022-11-29T10:32:43.528Z,44.53
2022-11-29T10:35:47.778Z,40.60
2022-11-29T10:38:52.322Z,40.90
2022-11-29T10:41:57.713Z,42.67
2022-11-29T10:45:00.409Z,45.10
2022-11-29T10:48:15.879Z,46.57
2022-11-29T10:51:18.799Z,43.42
2022-11-29T10:54:41.841Z,38.53
2022-11-29T10:58:16.095Z,41.33
2022-11-29T11:01:18.767Z,36.03
2022-11-29T11:04:44.720Z,38.53
2022-11-29T11:07:57.422Z,39.47
2022-11-29T11:11:02.104Z,32.95
2022-11-29T11:14:17.169Z,42.03
2022-11-29T11:17:32.903Z,41.30
2022-11-29T11:20:42.275Z,40.57
2022-11-29T11:24:04.452Z,38.85
2022-11-29T11:27:07.198Z,37.55
2022-11-29T11:30:22.550Z,36.78
2022-11-29T11:33:26.561Z,39.60
2022-11-29T11:36:28.960Z,44.10
2022-11-29T11:39:32.273Z,35.83
2022-11-29T11:42:41.039Z,37.80
2022-11-29T11:45:53.165Z,36.63
2022-11-29T11:48:55.580Z,35.92
2022-11-29T11:52:00.393Z,39.23
2022-11-29T11:55:07.603Z,38.65
2022-11-29T11:58:12.900Z,38.78
2022-11-29T12:01:16.986Z,42.50
2022-11-29T12:04:34.060Z,41.40
2022-11-29T12:08:07.260Z,40.47
2022-11-29T12:11:11.839Z,38.08
2022-11-29T12:14:28.227Z,37.40
2022-11-29T12:17:40.012Z,37.50
2022-11-29T12:21:03.799Z,37.50
2022-11-29T12:24:24.647Z,38.63
2022-11-29T12:27:33.032Z,41.30
2022-11-29T12:30:36.012Z,41.67
2022-11-29T12:33:47.380Z,37.70
2022-11-29T12:37:02.561Z,43.38
2022-11-29T12:40:32.613Z,44.07
2022-11-29T12:44:04.036Z,45.10
2022-11-29T12:47:37.087Z,45.85
2022-11-29T12:50:45.952Z,42.15
2022-11-29T12:53:54.227Z,42.08
2022-11-29T12:57:23.958Z,44.33
2022-11-29T13:00:31.571Z,46.70
2022-11-29T13:03:47.610Z,46.10
2022-11-29T13:06:59.537Z,45.50
2022-11-29T13:10:20.315Z,42.47
2022-11-29T13:13:42.742Z,46.37
2022-11-29T13:16:56.806Z,42.70
2022-11-29T13:20:16.486Z,49.45
2022-11-29T13:23:45.688Z,52.10
2022-11-29T13:26:49.772Z,45.33
2022-11-29T13:29:53.810Z,40.57
2022-11-29T13:33:05.101Z,39.22
2022-11-29T13:36:37.194Z,45.05
2022-11-29T13:39:48.420Z,43.80
2022-11-29T13:43:05.735Z,43.42
2022-11-29T13:46:16.385Z,44.17
2022-11-29T13:49:42.765Z,46.08
2022-11-29T13:52:47.239Z,39.40
2022-11-29T13:56:01.398Z,43.65
2022-11-29T13:59:08.777Z,44.60
2022-11-29T14:02:29.912Z,40.60
2022-11-29T14:05:39.863Z,42.40
2022-11-29T14:12:48.895Z,43.30
2022-11-29T14:15:58.629Z,55.10
2022-11-29T14:19:09.282Z,46.27
2022-11-29T14:22:19.469Z,46.55
2022-11-29T14:28:46.971Z,46.03
2022-11-29T14:31:51.822Z,47.53
2022-11-29T14:35:12.490Z,45.53
2022-11-29T14:38:39.198Z,46.22
2022-11-29T14:42:19.130Z,48.45
2022-11-29T14:45:31.127Z,46.60
2022-11-29T14:48:34.343Z,44.88
2022-11-29T14:51:37.470Z,44.43
2022-11-29T14:54:59.272Z,44.90
2022-11-29T14:58:05.952Z,44.08
2022-11-29T15:01:10.869Z,44.78
2022-11-29T15:04:13.920Z,43.45
2022-11-29T15:07:24.710Z,44.10
2022-11-29T15:10:31.595Z,45.95
2022-11-29T15:13:36.567Z,48.55
2022-11-29T15:16:56.346Z,44.67
2022-11-29T15:19:58.522Z,41.97
2022-11-29T15:23:09.752Z,44.90
2022-11-29T15:26:20.599Z,54.30
2022-11-29T15:29:23.613Z,45.33
2022-11-29T15:32:32.786Z,42.55
2022-11-29T15:35:36.756Z,45.63
2022-11-29T15:38:45.370Z,43.80
2022-11-29T15:41:47.968Z,52.55
2022-11-29T15:44:52.943Z,50.22
2022-11-29T15:48:10.310Z,51.75
2022-11-29T15:51:30.406Z,47.90
2022-11-29T15:54:57.027Z,51.43
2022-11-29T15:58:07.031Z,52.50
2022-11-29T16:01:19.274Z,49.13
2022-11-29T16:04:24.623Z,46.72
2022-11-29T16:07:32.388Z,53.08
2022-11-29T16:10:40.615Z,47.70
2022-11-29T16:14:16.673Z,45.00
2022-11-29T16:17:20.990Z,49.15
2022-11-29T16:20:25.863Z,50.90
2022-11-29T16:23:34.114Z,59.83
2022-11-29T16:26:44.082Z,47.87
2022-11-29T16:29:47.521Z,49.10
2022-11-29T16:32:59.469Z,54.35
2022-11-29T16:36:28.805Z,54.25
2022-11-29T16:39:31.586Z,46.22
2022-11-29T16:42:34.965Z,54.80
2022-11-29T16:45:41.712Z,48.58
2022-11-29T16:48:44.373Z,47.80
2022-11-29T16:51:48.365Z,49.33
2022-11-29T16:54:51.800Z,52.13
2022-11-29T16:57:54.164Z,59.17
2022-11-29T17:00:56.775Z,60.28
2022-11-29T17:04:00.536Z,54.10
2022-11-29T17:07:05.823Z,63.30
2022-11-29T17:10:13.415Z,54.55
2022-11-29T17:13:16.053Z,56.50
2022-11-29T17:16:21.261Z,54.92
2022-11-29T17:19:24.520Z,52.20
2022-11-29T17:22:26.846Z,57.47
2022-11-29T17:25:29.432Z,55.25
2022-11-29T17:28:31.755Z,52.13
2022-11-29T17:31:34.433Z,55.08
2022-11-29T17:34:37.270Z,56.10
2022-11-29T17:37:39.862Z,56.20
2022-11-29T17:40:42.193Z,53.22
2022-11-29T17:43:44.813Z,58.20
2022-11-29T17:46:47.001Z,55.75
2022-11-29T17:49:49.562Z,56.03
2022-11-29T17:52:51.843Z,59.05
2022-11-29T17:55:54.408Z,54.28
2022-11-29T17:58:59.071Z,49.47
2022-11-29T18:02:03.923Z,53.00
2022-11-29T18:05:07.137Z,54.75
2022-11-29T18:08:09.517Z,55.72
2022-11-29T18:11:13.348Z,62.95
2022-11-29T18:14:23.787Z,60.40
2022-11-29T18:17:26.718Z,56.28
2022-11-29T18:20:28.916Z,57.08
2022-11-29T18:23:33.841Z,52.97
2022-11-29T18:26:37.379Z,54.90
2022-11-29T18:29:40.000Z,52.93
2022-11-29T18:32:42.231Z,53.17
2022-11-29T18:35:44.784Z,49.72
2022-11-29T18:38:48.167Z,57.88
2022-11-29T18:41:51.181Z,54.05
2022-11-29T18:44:58.638Z,51.90
2022-11-29T18:48:01.647Z,59.97
2022-11-29T18:51:10.245Z,55.95
2022-11-29T18:54:17.594Z,61.25
2022-11-29T18:57:19.883Z,55.92
2022-11-29T19:00:22.653Z,57.37
2022-11-29T19:03:24.945Z,55.58
2022-11-29T19:06:35.582Z,58.15
2022-11-29T19:09:41.380Z,59.05
2022-11-29T19:12:44.032Z,55.67
2022-11-29T19:15:55.976Z,51.40
2022-11-29T19:18:59.713Z,55.12
2022-11-29T19:22:02.548Z,59.35
2022-11-29T19:25:06.025Z,50.78
2022-11-29T19:28:13.897Z,58.45
2022-11-29T19:31:19.272Z,52.87
2022-11-29T19:34:23.599Z,53.22
2022-11-29T19:37:26.195Z,49.60
2022-11-29T19:40:28.521Z,55.45
2022-11-29T19:43:31.616Z,47.22
2022-11-29T19:46:40.071Z,52.00
2022-11-29T19:49:46.582Z,53.90
2022-11-29T19:52:49.403Z,53.80
2022-11-29T19:55:52.173Z,53.13
2022-11-29T19:58:55.342Z,50.65
2022-11-29T20:01:58.161Z,51.43
2022-11-29T20:05:01.379Z,51.58
2022-11-29T20:08:03.882Z,54.92
2022-11-29T20:11:08.047Z,49.20
2022-11-29T20:14:12.051Z,54.30
2022-11-29T20:17:14.727Z,48.07
2022-11-29T20:20:17.090Z,48.42
2022-11-29T20:23:19.783Z,49.42
2022-11-29T20:26:25.422Z,48.78
2022-11-29T20:29:30.997Z,50.08
2022-11-29T20:32:34.976Z,51.13
2022-11-29T20:35:38.332Z,47.35
2022-11-29T20:38:48.781Z,46.35
2022-11-29T20:42:18.843Z,47.95
2022-11-29T20:45:24.266Z,51.72
2022-11-29T20:48:28.875Z,44.23
2022-11-29T20:51:42.978Z,50.80
2022-11-29T20:54:45.570Z,48.83
2022-11-29T20:57:48.039Z,45.78
2022-11-29T21:00:50.638Z,53.05
2022-11-29T21:03:53.266Z,51.50
2022-11-29T21:06:55.963Z,49.85
2022-11-29T21:10:01.405Z,51.50
2022-11-29T21:13:06.043Z,51.15
2022-11-29T21:16:11.117Z,55.17
2022-11-29T21:19:21.320Z,51.43
2022-11-29T21:22:42.706Z,46.03
2022-11-29T21:25:55.018Z,52.80
2022-11-29T21:29:00.466Z,45.92
2022-11-29T21:32:03.624Z,50.35
2022-11-29T21:35:07.071Z,47.23
2022-11-29T21:38:20.114Z,52.42
2022-11-29T21:41:23.740Z,45.67
2022-11-29T21:44:27.706Z,45.97
2022-11-29T21:47:30.577Z,43.72
2022-11-29T21:50:33.100Z,45.07
2022-11-29T21:53:37.082Z,47.05
2022-11-29T21:56:39.876Z,49.47
2022-11-29T21:59:42.622Z,46.05
2022-11-29T22:02:47.947Z,40.85
2022-11-29T22:05:52.647Z,48.40
2022-11-29T22:08:55.016Z,46.67
2022-11-29T22:11:59.058Z,43.85
2022-11-29T22:15:01.384Z,43.85
2022-11-29T22:18:04.511Z,45.78
2022-11-29T22:21:07.455Z,45.80
2022-11-29T22:24:11.463Z,45.10
2022-11-29T22:27:13.778Z,44.30
2022-11-29T22:30:16.815Z,42.67
2022-11-29T22:33:19.064Z,44.38
2022-11-29T22:36:21.894Z,47.00
2022-11-29T22:39:24.306Z,48.65
2022-11-29T22:42:27.238Z,44.58
2022-11-29T22:45:29.545Z,47.03
2022-11-29T22:48:38.161Z,42.35
2022-11-29T22:51:41.598Z,44.87
2022-11-29T22:54:44.753Z,53.38
2022-11-29T22:57:47.773Z,44.63
2022-11-29T23:00:50.307Z,42.92
2022-11-29T23:04:00.970Z,45.12
2022-11-29T23:07:03.540Z,43.43
2022-11-29T23:10:06.525Z,45.97
2022-11-29T23:13:09.080Z,45.33
2022-11-29T23:16:14.264Z,44.15
2022-11-29T23:19:17.378Z,44.63
2022-11-29T23:22:19.637Z,42.33
2022-11-29T23:25:22.371Z,41.30
2022-11-29T23:28:25.622Z,38.58
2022-11-29T23:31:28.755Z,38.70
2022-11-29T23:34:31.235Z,42.90
2022-11-29T23:37:33.726Z,39.33
2022-11-29T23:40:35.969Z,41.35
2022-11-29T23:43:40.656Z,42.25
2022-11-29T23:46:42.962Z,39.50
2022-11-29T23:49:45.581Z,40.38
2022-11-29T23:52:53.891Z,36.50
2022-11-29T23:55:58.417Z,40.67
2022-11-29T23:59:01.379Z,42.22
